Time;durP1;ratioP1;P1;durP2;ratioP2;P2;SDS_P1;SDS_P2;PMS_P1;PMS_P2;Temp;Humidity;BMP_temperature;BMP_pressure;BME280_temperature;BME280_humidity;BME280_pressure;Samples;Min_cycle;Max_cycle;Signal;HPM_P1;HPM_P2
2022/06/02 00:00:20;;;;;;;18.40;14.27;;;;;;;8.24;88.86;101841.59;5073795;28;20074;-83
2022/06/02 00:03:04;;;;;;;18.80;14.63;;;;;;;8.25;88.76;101851.38;5094791;27;20039;-82
2022/06/02 00:05:57;;;;;;;18.20;14.27;;;;;;;8.34;89.15;101857.59;5074867;28;21332;-82
2022/06/02 00:08:43;;;;;;;20.17;15.27;;;;;;;8.25;88.66;101848.69;5070609;28;20460;-82
2022/06/02 00:11:14;;;;;;;19.17;15.37;;;;;;;8.24;88.83;101855.09;5072302;28;20039;-82
2022/06/02 00:13:45;;;;;;;20.30;14.97;;;;;;;8.19;89.25;101854.75;5073043;28;20134;-84
2022/06/02 00:16:17;;;;;;;19.63;15.07;;;;;;;8.11;89.22;101847.50;5075594;28;20036;-84
2022/06/02 00:18:55;;;;;;;18.57;15.10;;;;;;;8.18;90.18;101850.34;5086369;28;20062;-85
2022/06/02 00:21:46;;;;;;;19.47;16.13;;;;;;;8.20;90.79;101858.28;5069657;28;20024;-82
2022/06/02 00:24:27;;;;;;;22.63;16.90;;;;;;;8.09;90.35;101864.88;5069667;28;20109;-83
2022/06/02 00:26:58;;;;;;;19.60;16.47;;;;;;;8.07;90.27;101861.50;5069193;28;20116;-83
2022/06/02 00:29:27;;;;;;;19.03;16.03;;;;;;;8.03;89.96;101865.56;5070495;28;20062;-82
2022/06/02 00:32:14;;;;;;;20.33;17.07;;;;;;;8.07;90.38;101866.91;5070853;28;20034;-82
2022/06/02 00:34:42;;;;;;;21.50;17.67;;;;;;;8.02;90.13;101869.28;5067942;28;20028;-83
2022/06/02 00:37:23;;;;;;;20.43;16.80;;;;;;;8.00;90.37;101865.91;5071640;28;20038;-83
2022/06/02 00:39:50;;;;;;;21.03;16.97;;;;;;;7.92;89.83;101870.28;5073114;28;20027;-82
2022/06/02 00:42:24;;;;;;;21.57;17.60;;;;;;;7.97;89.94;101866.22;5072127;28;20134;-82
2022/06/02 00:45:11;;;;;;;;;;;;;;;8.08;88.33;101874.00;5074836;28;20348;-83
2022/06/02 00:48:15;;;;;;;21.20;17.93;;;;;;;7.99;90.15;101867.75;5073066;28;19920;-82
2022/06/02 00:50:52;;;;;;;20.93;18.37;;;;;;;7.92;90.43;101875.69;5070816;28;20460;-83
2022/06/02 00:53:23;;;;;;;22.00;18.57;;;;;;;7.91;91.15;101874.00;5086956;27;20376;-83
2022/06/02 00:59:23;;;;;;;21.73;18.58;;;;;;;7.97;91.14;101877.03;5070144;28;20038;-83
2022/06/02 01:01:49;;;;;;;22.83;18.40;;;;;;;7.98;90.99;101874.16;5067824;28;20058;-82
2022/06/02 01:04:17;;;;;;;21.27;17.50;;;;;;;8.05;91.49;101867.09;5086480;28;20082;-84
2022/06/02 01:06:48;;;;;;;18.20;14.63;;;;;;;8.03;91.70;101873.66;5069159;28;20152;-82
2022/06/02 01:09:16;;;;;;;16.47;13.87;;;;;;;8.01;92.13;101872.97;5071034;28;20481;-83
2022/06/02 01:11:55;;;;;;;20.43;14.90;;;;;;;7.97;92.03;101866.22;5068851;28;20111;-83
2022/06/02 01:14:46;;;;;;;21.30;16.87;;;;;;;7.90;91.67;101864.22;5086714;28;20464;-83
2022/06/02 01:17:54;;;;;;;21.63;18.00;;;;;;;7.93;91.59;101863.88;5038649;28;20051;-83
2022/06/02 01:20:30;;;;;;;25.53;20.10;;;;;;;7.76;91.54;101854.97;5055228;28;20376;-83
2022/06/02 01:23:33;;;;;;;21.83;17.67;;;;;;;7.80;91.41;101866.25;5068837;28;20103;-83
2022/06/02 01:26:34;;;;;;;22.90;18.40;;;;;;;7.76;91.15;101871.16;5069933;28;20036;-83
2022/06/02 01:29:26;;;;;;;23.43;18.67;;;;;;;7.68;90.93;101863.03;5082528;28;20398;-83
2022/06/02 01:32:00;;;;;;;25.43;20.10;;;;;;;7.71;91.10;101872.63;5039156;28;20044;-83
2022/06/02 01:34:43;;;;;;;23.88;19.88;;;;;;;7.74;91.52;101873.16;5070050;28;20126;-83
2022/06/02 01:37:28;;;;;;;24.50;19.83;;;;;;;7.68;91.25;101871.13;5069248;28;20039;-83
2022/06/02 01:40:15;;;;;;;26.17;20.48;;;;;;;7.67;91.02;101865.88;5069849;28;20040;-83
2022/06/02 01:42:50;;;;;;;24.27;20.60;;;;;;;7.59;91.28;101870.28;5071056;28;20020;-83
2022/06/02 01:45:34;;;;;;;24.27;20.33;;;;;;;7.52;91.51;101866.56;5072028;28;20051;-83
2022/06/02 01:48:02;;;;;;;25.30;20.67;;;;;;;7.55;91.90;101868.09;5080806;28;20036;-86
2022/06/02 01:50:36;;;;;;;25.60;20.90;;;;;;;7.49;91.56;101869.56;5068955;28;20016;-85
2022/06/02 01:53:06;;;;;;;25.33;20.42;;;;;;;7.50;91.36;101871.28;5069344;28;20012;-83
2022/06/02 01:55:43;;;;;;;24.07;19.67;;;;;;;7.49;91.22;101866.88;5066960;28;20029;-83
2022/06/02 01:58:11;;;;;;;24.63;19.73;;;;;;;7.47;90.60;101862.69;5075121;28;20032;-83
2022/06/02 02:00:37;;;;;;;26.10;20.00;;;;;;;7.43;90.76;101863.00;5077419;28;20372;-84
2022/06/02 02:03:05;;;;;;;25.07;20.60;;;;;;;7.43;90.78;101865.69;5066800;28;20044;-84
2022/06/02 02:05:36;;;;;;;26.73;20.40;;;;;;;7.42;91.35;101863.16;5065780;28;20112;-83
2022/06/02 02:08:20;;;;;;;26.50;21.63;;;;;;;7.46;92.29;101861.81;5069909;28;20078;-83
2022/06/02 02:11:36;;;;;;;26.43;21.30;;;;;;;7.49;92.10;101860.66;5071849;28;20040;-84
2022/06/02 02:14:13;;;;;;;28.10;21.13;;;;;;;7.44;91.61;101866.56;5043559;28;20062;-84
2022/06/02 02:16:57;;;;;;;24.47;18.83;;;;;;;7.49;92.00;101872.28;5072085;28;20060;-83
2022/06/02 02:19:35;;;;;;;19.20;15.13;;;;;;;7.42;92.14;101863.16;5075223;28;20044;-83
2022/06/02 02:22:19;;;;;;;22.07;18.07;;;;;;;7.40;92.09;101871.44;5072087;28;20514;-83
2022/06/02 02:24:59;;;;;;;24.47;19.40;;;;;;;7.33;92.20;101873.09;5070000;28;20158;-83
2022/06/02 02:28:02;;;;;;;21.60;17.30;;;;;;;7.30;92.01;101873.41;5070967;28;20028;-84
2022/06/02 02:30:29;;;;;;;22.87;17.60;;;;;;;7.25;91.55;101873.91;5071865;28;20036;-83
2022/06/02 02:33:16;;;;;;;22.03;17.77;;;;;;;7.26;91.91;101874.75;5071360;28;20652;-83
2022/06/02 02:36:10;;;;;;;22.17;16.87;;;;;;;7.18;91.94;101878.28;5072127;28;20040;-87
2022/06/02 02:39:00;;;;;;;24.13;18.77;;;;;;;7.18;92.84;101881.00;5081766;28;20031;-83
2022/06/02 02:41:51;;;;;;;24.00;19.80;;;;;;;7.15;93.80;101881.28;5071318;28;21024;-84
2022/06/02 02:44:34;;;;;;;25.63;21.70;;;;;;;7.10;93.97;101878.28;5090824;28;20045;-84
2022/06/02 02:47:09;;;;;;;29.57;23.53;;;;;;;7.10;94.60;101883.66;5072951;28;20052;-83
2022/06/02 02:49:59;;;;;;;27.00;21.23;;;;;;;7.07;94.73;101887.53;5072132;28;20072;-83
2022/06/02 02:53:15;;;;;;;27.33;22.40;;;;;;;7.06;94.58;101883.13;5070775;28;20035;-84
2022/06/02 02:56:19;;;;;;;27.00;21.83;;;;;;;7.08;94.33;101896.44;4994347;28;20040;-84
2022/06/02 02:58:49;;;;;;;27.00;21.87;;;;;;;7.12;94.15;101900.50;4974892;28;20506;-83
2022/06/02 03:01:31;;;;;;;28.20;22.33;;;;;;;7.00;94.96;101885.63;5054569;28;20475;-84
2022/06/02 03:04:24;;;;;;;28.47;24.53;;;;;;;7.08;95.54;101891.88;5072499;28;20021;-84
2022/06/02 03:06:54;;;;;;;31.13;23.83;;;;;;;7.08;95.66;101899.97;5076430;28;20036;-84
2022/06/02 03:09:40;;;;;;;28.47;23.60;;;;;;;7.07;96.06;101902.81;5071140;28;20032;-84
2022/06/02 03:12:15;;;;;;;29.37;24.93;;;;;;;7.10;96.28;101894.44;5072027;28;20363;-84
2022/06/02 03:14:54;;;;;;;28.87;24.27;;;;;;;7.06;96.45;101893.91;5074408;28;20021;-84
2022/06/02 03:17:44;;;;;;;27.53;23.03;;;;;;;7.15;96.38;101910.94;5068318;28;20036;-83
2022/06/02 03:21:08;;;;;;;28.87;23.37;;;;;;;7.13;95.96;101906.75;5072952;28;20036;-86
2022/06/02 03:23:45;;;;;;;27.27;22.80;;;;;;;7.08;95.44;101920.69;4999859;28;20040;-84
2022/06/02 03:26:31;;;;;;;25.60;21.47;;;;;;;7.08;95.16;101915.31;5069611;28;20031;-84
2022/06/02 03:29:24;;;;;;;25.93;21.80;;;;;;;7.05;94.98;101921.03;5038088;28;20147;-83
2022/06/02 03:32:14;;;;;;;27.07;22.67;;;;;;;7.04;95.26;101924.72;5071531;28;20025;-84
2022/06/02 03:34:57;;;;;;;28.07;22.80;;;;;;;7.07;95.69;101921.69;5074523;28;20076;-84
2022/06/02 03:37:33;;;;;;;28.37;24.23;;;;;;;7.01;95.68;101935.81;5072813;28;20210;-84
2022/06/02 03:40:27;;;;;;;28.13;23.00;;;;;;;7.02;96.09;101934.84;5070700;28;20067;-87
2022/06/02 03:42:52;;;;;;;27.80;23.00;;;;;;;6.99;95.46;101932.44;5081501;28;20115;-84
2022/06/02 03:45:39;;;;;;;26.47;22.27;;;;;;;7.01;95.51;101928.56;5070300;28;20134;-84
2022/06/02 03:48:20;;;;;;;28.97;23.27;;;;;;;7.04;95.55;101941.72;5079971;28;20035;-84
2022/06/02 03:50:54;;;;;;;28.50;23.30;;;;;;;7.06;95.56;101937.03;5071837;28;20035;-84
2022/06/02 03:53:27;;;;;;;27.48;22.48;;;;;;;7.04;95.57;101941.72;5068485;28;20115;-83
2022/06/02 03:56:11;;;;;;;27.40;22.45;;;;;;;7.05;95.52;101940.72;5070067;28;20410;-84
2022/06/02 03:59:15;;;;;;;25.73;21.97;;;;;;;7.07;95.03;101941.41;5073350;28;20376;-84
2022/06/02 04:01:51;;;;;;;27.57;21.63;;;;;;;7.05;94.61;101943.41;5071779;28;20028;-84
2022/06/02 04:04:30;;;;;;;27.90;22.17;;;;;;;7.01;94.64;101939.34;5067853;28;20414;-84
2022/06/02 04:07:15;;;;;;;27.77;22.50;;;;;;;7.04;94.87;101940.88;5075820;28;20036;-83
2022/06/02 04:09:49;;;;;;;26.65;22.35;;;;;;;7.08;94.60;101948.47;5069303;28;20510;-84
2022/06/02 04:15:47;;;;;;;30.17;24.70;;;;;;;7.16;95.65;101955.75;5070264;28;20493;-85
2022/06/02 04:18:15;;;;;;;35.25;26.98;;;;;;;7.23;96.89;101956.78;5072652;28;20079;-87
2022/06/02 04:21:14;;;;;;;35.80;28.63;;;;;;;7.27;98.22;101951.94;5072661;28;20024;-84
2022/06/02 04:24:06;;;;;;;35.70;29.50;;;;;;;7.33;98.28;101953.13;5069096;28;20036;-84
2022/06/02 04:27:08;;;;;;;36.40;29.63;;;;;;;7.36;98.63;101958.22;5069586;28;20064;-84
2022/06/02 04:30:01;;;;;;;35.13;30.20;;;;;;;7.36;98.84;101947.44;5067904;28;20025;-84
2022/06/02 04:32:41;;;;;;;37.30;29.63;;;;;;;7.48;99.09;101967.69;5073158;28;20061;-84
2022/06/02 04:35:12;;;;;;;35.87;30.53;;;;;;;7.51;98.98;101964.66;5079673;28;20468;-85
2022/06/02 04:37:48;;;;;;;36.87;30.47;;;;;;;7.51;99.10;101961.97;5071236;28;20024;-84
2022/06/02 04:40:37;;;;;;;39.53;31.67;;;;;;;7.64;99.18;101972.25;5068040;28;21018;-84
2022/06/02 04:43:24;;;;;;;35.93;30.70;;;;;;;7.68;99.19;101970.09;5087891;28;20443;-84
2022/06/02 04:46:01;;;;;;;37.67;31.93;;;;;;;7.76;99.19;101975.50;5069864;28;20060;-84
2022/06/02 04:49:08;;;;;;;37.37;30.50;;;;;;;7.86;99.26;101978.03;5071900;28;20017;-84
2022/06/02 04:52:11;;;;;;;39.43;30.73;;;;;;;7.87;98.92;101971.66;5071271;28;20066;-84
2022/06/02 04:54:45;;;;;;;37.17;30.10;;;;;;;7.97;98.81;101976.88;5084033;28;20472;-83
2022/06/02 04:57:23;;;;;;;34.72;30.38;;;;;;;7.99;98.30;101980.28;5069965;28;20482;-83
2022/06/02 05:00:07;;;;;;;38.60;30.83;;;;;;;8.09;98.65;101986.34;5076440;28;20054;-83
2022/06/02 05:03:13;;;;;;;39.20;32.58;;;;;;;8.05;98.70;101966.97;5068885;28;20039;-82
2022/06/02 05:05:44;;;;;;;38.10;32.63;;;;;;;8.27;98.38;101987.03;5069352;28;20118;-83
2022/06/02 05:08:44;;;;;;;37.23;30.93;;;;;;;8.28;98.22;101980.63;5072265;28;20024;-83
2022/06/02 05:11:16;;;;;;;37.67;31.30;;;;;;;8.42;98.03;101989.06;5069315;28;20473;-86
2022/06/02 05:14:04;;;;;;;39.90;32.50;;;;;;;8.52;98.06;101989.75;5085776;28;20039;-83
2022/06/02 05:16:43;;;;;;;36.90;31.77;;;;;;;8.60;97.89;101995.16;5069460;28;20044;-83
2022/06/02 05:19:30;;;;;;;40.77;34.63;;;;;;;8.71;97.67;101993.13;5070724;28;20102;-83
2022/06/02 05:22:14;;;;;;;39.10;32.53;;;;;;;8.81;97.46;101995.63;5069138;28;20027;-84
2022/06/02 05:25:01;;;;;;;40.65;32.58;;;;;;;8.90;97.68;101992.72;5070563;28;20106;-84
2022/06/02 05:27:38;;;;;;;37.27;30.60;;;;;;;9.01;97.37;101996.94;5069416;28;20134;-83
2022/06/02 05:30:45;;;;;;;34.93;30.87;;;;;;;9.12;97.08;101996.59;5069180;28;20779;-83
2022/06/02 05:33:23;;;;;;;35.90;29.53;;;;;;;9.22;96.58;102001.78;5025082;28;20048;-84
2022/06/02 05:36:04;;;;;;;36.00;29.93;;;;;;;9.35;96.16;102000.38;5040958;28;20047;-83
2022/06/02 05:38:51;;;;;;;34.93;28.90;;;;;;;9.43;95.73;101994.94;5053522;28;20028;-83
2022/06/02 05:41:27;;;;;;;36.17;30.03;;;;;;;9.52;95.28;102006.53;5067461;28;20446;-83
2022/06/02 05:44:06;;;;;;;35.57;29.43;;;;;;;9.63;95.03;102004.31;5068929;28;20393;-85
2022/06/02 05:46:32;;;;;;;35.03;30.47;;;;;;;9.71;94.80;102005.25;5085387;28;20544;-82
2022/06/02 05:49:17;;;;;;;35.27;30.13;;;;;;;9.85;94.39;102000.97;5069175;28;20032;-84
2022/06/02 05:51:48;;;;;;;35.10;31.30;;;;;;;9.92;94.20;102001.94;5068238;28;20032;-84
2022/06/02 05:54:31;;;;;;;35.03;31.17;;;;;;;10.10;94.39;102016.03;5069471;28;20040;-83
2022/06/02 05:57:15;;;;;;;32.93;29.17;;;;;;;10.23;93.81;102009.19;5066634;28;20487;-82
2022/06/02 05:59:49;;;;;;;33.00;29.40;;;;;;;10.37;93.58;102005.69;5067339;28;20116;-82
2022/06/02 06:02:14;;;;;;;30.67;25.98;;;;;;;10.51;93.28;102006.75;5085077;28;20045;-82
2022/06/02 06:05:01;;;;;;;29.53;25.93;;;;;;;10.63;92.61;102009.88;5069852;28;20032;-82
2022/06/02 06:07:45;;;;;;;30.37;24.87;;;;;;;10.78;92.28;102018.91;5068227;28;20020;-83
2022/06/02 06:10:29;;;;;;;30.02;24.25;;;;;;;10.92;91.75;102021.78;5071336;28;20069;-81
2022/06/02 06:13:17;;;;;;;29.67;25.02;;;;;;;11.06;91.27;102018.25;5068550;28;20032;-82
2022/06/02 06:16:23;;;;;;;24.57;20.40;;;;;;;11.23;89.32;102027.06;5072215;28;20108;-83
2022/06/02 06:19:07;;;;;;;27.17;23.17;;;;;;;11.37;89.65;102021.81;4998453;28;20065;-81
2022/06/02 06:22:10;;;;;;;30.80;25.07;;;;;;;11.54;89.83;102030.59;4997975;28;20212;-84
2022/06/02 06:25:13;;;;;;;27.63;24.30;;;;;;;11.74;89.44;102036.28;5057746;28;20098;-84
2022/06/02 06:27:48;;;;;;;25.47;21.30;;;;;;;11.68;88.20;102016.13;5069115;28;20368;-82
2022/06/02 06:30:37;;;;;;;;;;;;;;;11.94;89.28;102045.53;5068740;28;20056;-81
2022/06/02 06:33:02;;;;;;;27.57;22.83;;;;;;;12.07;88.51;102044.00;5068331;28;20046;-81
2022/06/02 06:35:54;;;;;;;25.20;22.17;;;;;;;12.19;87.00;102042.44;5068615;28;20116;-82
2022/06/02 06:38:31;;;;;;;24.93;21.87;;;;;;;12.25;85.40;102038.97;5067726;28;20036;-82
2022/06/02 06:41:28;;;;;;;25.57;21.97;;;;;;;12.45;85.63;102047.28;5068879;28;20031;-82
2022/06/02 06:44:08;;;;;;;23.23;19.30;;;;;;;12.49;83.65;102053.19;5068797;28;20028;-83
2022/06/02 06:46:38;;;;;;;23.73;20.13;;;;;;;12.65;84.14;102042.03;5069778;28;20056;-81
2022/06/02 06:49:16;;;;;;;21.60;18.73;;;;;;;12.84;83.42;102045.13;5075598;28;20028;-81
2022/06/02 06:52:07;;;;;;;21.83;18.50;;;;;;;12.92;81.43;102055.84;5068808;28;20036;-83
2022/06/02 06:54:40;;;;;;;22.90;18.30;;;;;;;13.10;81.22;102057.25;5071257;28;20028;-83
2022/06/02 06:57:20;;;;;;;18.67;15.52;;;;;;;13.18;80.02;102057.91;5074839;28;20038;-82
2022/06/02 06:59:53;;;;;;;18.80;16.50;;;;;;;13.07;78.44;102058.47;5072269;28;20635;-84
2022/06/02 07:02:57;;;;;;;21.17;16.87;;;;;;;13.15;79.21;102068.34;5074680;28;20066;-83
2022/06/02 07:05:28;;;;;;;17.97;14.40;;;;;;;13.27;76.82;102074.94;5041211;28;20086;-82
2022/06/02 07:08:03;;;;;;;18.53;15.00;;;;;;;13.37;77.00;102061.00;5070651;28;20032;-82
2022/06/02 07:10:42;;;;;;;17.93;14.70;;;;;;;13.55;79.36;102068.63;5071446;28;20063;-82
2022/06/02 07:13:14;;;;;;;18.37;14.67;;;;;;;13.65;77.71;102077.28;5073214;28;20086;-81
2022/06/02 07:16:14;;;;;;;18.47;15.73;;;;;;;13.65;77.79;102079.13;5083137;28;20032;-82
2022/06/02 07:19:11;;;;;;;18.03;14.73;;;;;;;13.76;78.62;102080.44;5069292;28;20040;-82
2022/06/02 07:21:45;;;;;;;12.67;10.90;;;;;;;13.65;73.44;102080.00;5068204;28;20073;-83
2022/06/02 07:24:32;;;;;;;13.95;11.05;;;;;;;13.91;75.64;102083.88;5073953;28;20089;-82
2022/06/02 07:27:20;;;;;;;14.87;11.67;;;;;;;14.09;76.79;102088.75;5076386;28;21534;-81
2022/06/02 07:30:14;;;;;;;15.23;12.07;;;;;;;14.24;75.33;102083.13;5074153;28;20110;-81
2022/06/02 07:32:49;;;;;;;14.33;11.53;;;;;;;14.64;74.98;102094.13;5075341;28;20073;-82
2022/06/02 07:35:42;;;;;;;14.90;10.17;;;;;;;14.92;72.88;102098.56;5073359;28;20027;-83
2022/06/02 07:38:30;;;;;;;9.77;7.70;;;;;;;14.93;66.32;102092.06;5071935;28;20157;-83
2022/06/02 07:41:01;;;;;;;10.10;8.07;;;;;;;14.68;64.85;102094.56;5069978;28;20017;-82
2022/06/02 07:43:49;;;;;;;8.63;7.70;;;;;;;14.77;65.54;102096.03;5070005;28;20111;-85
2022/06/02 07:46:46;;;;;;;10.83;7.17;;;;;;;14.75;63.10;102086.38;5068431;28;20048;-84
2022/06/02 07:49:45;;;;;;;10.63;8.43;;;;;;;15.10;66.18;102094.34;5068510;28;20472;-82
2022/06/02 07:52:22;;;;;;;12.30;9.77;;;;;;;15.46;66.83;102102.06;5071353;28;20059;-82
2022/06/02 07:55:19;;;;;;;11.27;9.87;;;;;;;15.86;68.20;102104.69;5088131;28;20039;-82
2022/06/02 07:57:54;;;;;;;13.17;9.90;;;;;;;15.86;64.90;102096.47;5062353;28;20066;-84
2022/06/02 08:00:24;;;;;;;;;;;;;;;16.14;67.50;102103.50;5076205;28;20157;-83
2022/06/02 08:02:58;;;;;;;10.43;8.97;;;;;;;15.72;63.52;102105.78;5071656;28;19912;-83
2022/06/02 08:05:46;;;;;;;10.87;8.07;;;;;;;15.65;63.23;102110.41;5073432;28;20464;-81
2022/06/02 08:08:37;;;;;;;8.43;7.17;;;;;;;15.68;60.86;102107.25;5069952;28;20035;-82
2022/06/02 08:11:12;;;;;;;5.80;5.23;;;;;;;15.98;60.14;102104.84;5073996;28;20028;-81
2022/06/02 08:14:11;;;;;;;7.60;6.10;;;;;;;16.29;62.34;102108.69;5072644;28;20421;-83
2022/06/02 08:16:51;;;;;;;8.03;6.43;;;;;;;16.26;57.62;102100.91;5070013;28;20028;-84
2022/06/02 08:19:35;;;;;;;5.93;5.40;;;;;;;16.48;59.33;102108.78;5079440;28;20033;-85
2022/06/02 08:22:04;;;;;;;8.00;7.20;;;;;;;16.51;57.15;102108.34;5072443;28;20041;-84
2022/06/02 08:24:36;;;;;;;9.20;7.27;;;;;;;16.88;60.75;102098.38;5077955;28;20369;-82
2022/06/02 08:27:22;;;;;;;7.10;6.00;;;;;;;17.12;56.05;102104.09;5071035;28;20674;-91
2022/06/02 08:29:55;;;;;;;7.23;6.50;;;;;;;17.01;56.07;102091.97;5070049;28;20037;-83
2022/06/02 08:32:25;;;;;;;9.30;7.30;;;;;;;17.37;56.63;102104.03;5069671;28;20450;-84
2022/06/02 08:35:08;;;;;;;8.10;7.30;;;;;;;17.63;58.46;102104.81;5085572;28;20040;-82
2022/06/02 08:37:44;;;;;;;8.77;7.40;;;;;;;17.61;57.44;102100.63;5086462;28;20147;-82
2022/06/02 08:40:36;;;;;;;8.30;7.40;;;;;;;17.51;56.64;102101.16;5081761;28;20028;-82
2022/06/02 08:43:29;;;;;;;10.73;7.70;;;;;;;17.78;55.28;102104.44;5068965;28;20052;-85
2022/06/02 08:46:33;;;;;;;8.10;7.30;;;;;;;18.37;57.18;102104.75;5072463;28;20056;-82
2022/06/02 08:49:11;;;;;;;7.70;6.90;;;;;;;18.39;53.24;102113.56;5077363;28;20114;-83
2022/06/02 08:51:56;;;;;;;7.60;6.80;;;;;;;18.22;53.31;102112.53;5067649;28;20021;-83
2022/06/02 08:54:43;;;;;;;7.90;7.05;;;;;;;18.33;51.10;102119.16;5071439;28;20044;-83
2022/06/02 08:57:46;;;;;;;7.88;7.07;;;;;;;19.04;53.43;102125.66;5070851;28;20375;-84
2022/06/02 09:00:43;;;;;;;7.55;6.32;;;;;;;19.52;53.18;102112.75;5072014;28;20104;-82
2022/06/02 09:03:36;;;;;;;7.65;6.53;;;;;;;19.88;53.48;102129.19;5070870;28;20414;-83
2022/06/02 09:06:34;;;;;;;8.75;6.85;;;;;;;20.08;47.59;102124.09;5082739;28;20042;-85
2022/06/02 09:09:06;;;;;;;6.82;6.13;;;;;;;19.99;46.26;102130.25;5067648;28;20063;-83
2022/06/02 09:12:06;;;;;;;7.40;6.70;;;;;;;20.71;50.34;102128.88;5068265;28;20033;-82
2022/06/02 09:15:08;;;;;;;8.27;6.05;;;;;;;21.02;49.74;102130.19;5071707;28;20045;-82
2022/06/02 09:17:35;;;;;;;6.97;6.28;;;;;;;20.47;44.68;102126.22;5068872;28;20465;-83
2022/06/02 09:20:13;;;;;;;7.78;6.72;;;;;;;20.39;49.21;102119.19;5069770;28;21431;-83
2022/06/02 09:22:49;;;;;;;7.43;6.45;;;;;;;20.29;48.36;102105.25;5068613;28;20027;-85
2022/06/02 09:25:28;;;;;;;5.95;5.05;;;;;;;20.94;46.09;102111.34;5071141;28;20456;-86
2022/06/02 09:28:18;;;;;;;6.28;5.35;;;;;;;21.13;43.51;102122.94;5079341;28;20032;-84
2022/06/02 09:31:09;;;;;;;6.97;6.00;;;;;;;21.27;42.27;102117.94;5073393;28;20046;-84
2022/06/02 09:34:10;;;;;;;6.88;5.72;;;;;;;21.85;46.52;102112.09;5045137;28;20119;-83
2022/06/02 09:37:04;;;;;;;6.43;5.60;;;;;;;21.73;40.16;102115.81;5069588;28;20039;-85
2022/06/02 09:39:48;;;;;;;6.32;5.70;;;;;;;22.38;42.29;102107.72;5060906;28;20103;-83
2022/06/02 09:42:16;;;;;;;7.80;6.32;;;;;;;22.33;40.90;102106.81;5072478;28;20024;-84
2022/06/02 09:45:07;;;;;;;7.70;6.10;;;;;;;22.89;44.38;102109.31;5070342;28;20046;-83
2022/06/02 09:48:07;;;;;;;6.88;6.22;;;;;;;23.00;41.74;102115.75;5083770;28;20040;-83
2022/06/02 09:50:45;;;;;;;6.53;5.93;;;;;;;23.21;43.02;102108.44;5006895;28;20516;-84
2022/06/02 09:53:22;;;;;;;6.40;5.80;;;;;;;23.32;41.32;102106.56;5061623;28;20119;-83
2022/06/02 09:56:05;;;;;;;6.22;5.60;;;;;;;23.52;40.48;102097.56;5074041;28;20016;-83
2022/06/02 09:58:36;;;;;;;6.95;5.85;;;;;;;23.32;38.35;102089.97;5077280;28;20483;-84
2022/06/02 10:01:26;;;;;;;7.93;6.57;;;;;;;23.65;41.98;102104.50;5066055;28;20111;-85
2022/06/02 10:04:00;;;;;;;8.10;7.00;;;;;;;23.24;37.87;102105.13;5067147;28;20075;-84
2022/06/02 10:07:07;;;;;;;7.22;6.63;;;;;;;23.34;41.76;102110.72;5071615;28;20028;-83
2022/06/02 10:09:55;;;;;;;7.80;6.72;;;;;;;22.69;41.88;102107.19;5036491;28;20047;-85
2022/06/02 10:15:35;;;;;;;7.38;6.00;;;;;;;22.59;38.93;102102.44;5067517;28;20396;-84
2022/06/02 10:18:06;;;;;;;6.57;5.93;;;;;;;22.46;37.54;102098.16;5071473;28;20036;-84
2022/06/02 10:20:44;;;;;;;7.07;6.38;;;;;;;22.73;38.88;102100.06;5067749;28;20349;-84
2022/06/02 10:23:24;;;;;;;7.07;6.07;;;;;;;22.98;40.15;102096.63;5074495;28;20105;-83
2022/06/02 10:26:21;;;;;;;6.93;6.20;;;;;;;23.00;38.23;102088.91;5070324;28;20025;-88
2022/06/02 10:29:05;;;;;;;6.15;5.55;;;;;;;23.30;40.68;102097.72;5074374;28;20160;-87
2022/06/02 10:31:39;;;;;;;6.00;5.50;;;;;;;23.55;38.65;102094.25;5070592;28;20042;-84
2022/06/02 10:34:43;;;;;;;6.18;5.43;;;;;;;23.94;40.55;102091.09;5076563;28;20028;-83
2022/06/02 10:37:33;;;;;;;6.25;5.65;;;;;;;24.16;40.22;102101.13;5066099;28;20064;-84
2022/06/02 10:40:20;;;;;;;6.20;5.40;;;;;;;24.42;40.54;102093.69;5077885;28;20023;-82
2022/06/02 10:42:51;;;;;;;6.45;5.68;;;;;;;24.20;39.37;102094.75;5083122;28;20028;-84
2022/06/02 10:45:46;;;;;;;6.82;5.60;;;;;;;23.32;40.60;102087.22;5069956;28;20048;-84
2022/06/02 10:48:30;;;;;;;6.55;5.93;;;;;;;22.84;40.97;102073.34;5071572;28;20046;-84
2022/06/02 10:51:17;;;;;;;8.75;7.00;;;;;;;22.73;36.85;102086.22;5071193;28;20479;-86
2022/06/02 10:54:00;;;;;;;6.82;5.82;;;;;;;23.26;38.57;102073.34;5070908;28;20062;-84
2022/06/02 10:56:47;;;;;;;6.53;5.82;;;;;;;23.99;41.23;102077.28;5086646;28;20046;-83
2022/06/02 10:59:40;;;;;;;6.03;5.50;;;;;;;23.83;38.29;102072.78;5069673;28;20144;-85
2022/06/02 11:02:36;;;;;;;7.20;6.50;;;;;;;23.34;41.02;102072.03;5070818;28;20032;-84
2022/06/02 11:05:39;;;;;;;8.25;6.38;;;;;;;23.71;39.18;102075.78;5070426;28;20032;-85
2022/06/02 11:08:26;;;;;;;7.57;6.20;;;;;;;23.24;35.43;102063.66;5072388;28;20056;-86
2022/06/02 11:11:12;;;;;;;8.13;6.80;;;;;;;22.47;36.71;102068.63;5073266;28;20032;-82
2022/06/02 11:13:56;;;;;;;8.25;7.45;;;;;;;22.29;40.43;102067.03;5071164;28;20158;-83
2022/06/02 11:16:30;;;;;;;9.35;7.00;;;;;;;22.25;39.84;102067.56;5070577;28;20803;-83
2022/06/02 11:19:23;;;;;;;7.43;6.70;;;;;;;22.20;39.44;102072.19;5071035;28;20394;-85
2022/06/02 11:22:10;;;;;;;6.63;6.03;;;;;;;22.54;39.93;102069.22;5070556;28;20040;-84
2022/06/02 11:24:57;;;;;;;7.10;6.40;;;;;;;22.32;38.05;102056.31;5070542;28;20088;-83
2022/06/02 11:27:43;;;;;;;8.13;6.30;;;;;;;21.88;39.51;102062.75;5069611;28;20110;-84
2022/06/02 11:30:14;;;;;;;7.38;5.93;;;;;;;22.19;42.56;102059.47;5070830;28;20114;-84
2022/06/02 11:32:55;;;;;;;6.70;6.00;;;;;;;22.22;39.47;102050.66;5070726;28;20450;-88
2022/06/02 11:36:16;;;;;;;7.43;6.07;;;;;;;22.43;38.60;102057.25;5070974;28;20035;-85
2022/06/02 11:39:00;;;;;;;7.15;6.43;;;;;;;21.60;38.97;102058.28;5054149;28;20054;-85
2022/06/02 11:41:47;;;;;;;7.40;6.68;;;;;;;21.33;38.44;102050.75;5070090;28;20059;-84
2022/06/02 11:44:26;;;;;;;7.72;6.43;;;;;;;21.22;39.74;102055.28;5069758;28;20036;-84
2022/06/02 11:47:20;;;;;;;7.65;6.88;;;;;;;21.21;39.27;102053.59;5070818;28;20114;-86
2022/06/02 11:50:04;;;;;;;7.18;6.30;;;;;;;20.86;38.71;102048.41;5070014;28;20107;-87
2022/06/02 11:53:07;;;;;;;8.05;6.35;;;;;;;21.18;38.89;102047.78;5069559;28;20039;-89
2022/06/02 11:55:47;;;;;;;6.45;5.75;;;;;;;21.64;42.26;102042.91;5070507;28;20028;-84
2022/06/02 11:59:00;;;;;;;8.02;7.20;;;;;;;21.27;38.46;102039.91;5065413;28;20032;-87
2022/06/02 12:01:44;;;;;;;8.30;6.60;;;;;;;21.16;39.96;102033.41;5063233;28;20094;-85
2022/06/02 12:04:28;;;;;;;;;;;;;;;21.71;39.47;102046.28;5065869;28;20024;-91
2022/06/02 12:07:22;;;;;;;7.82;5.90;;;;;;;21.59;37.68;102042.81;5064949;28;19979;-88
2022/06/02 12:10:32;;;;;;;8.90;5.47;;;;;;;21.51;37.09;102002.72;5066295;28;20036;-83
2022/06/02 12:13:29;;;;;;;6.32;5.72;;;;;;;21.66;37.11;102042.63;5067357;28;20028;-85
2022/06/02 12:16:26;;;;;;;6.45;5.85;;;;;;;21.75;38.28;102030.06;5060516;28;20143;-86
2022/06/02 12:19:06;;;;;;;6.60;6.00;;;;;;;21.67;37.54;102027.75;5069098;28;20025;-85
2022/06/02 12:21:56;;;;;;;6.15;5.53;;;;;;;22.02;39.75;102018.22;5069205;28;20043;-87
2022/06/02 12:24:49;;;;;;;6.38;5.40;;;;;;;21.73;36.32;102010.16;5070818;28;20135;-87
2022/06/02 12:27:40;;;;;;;7.60;6.90;;;;;;;21.95;38.18;102001.84;5069241;28;20090;-86
2022/06/02 12:30:31;;;;;;;6.43;5.82;;;;;;;21.83;40.33;102003.94;5060334;28;20047;-84
2022/06/02 12:33:11;;;;;;;6.75;6.15;;;;;;;21.95;40.56;102007.38;5068802;28;20035;-86
2022/06/02 12:36:28;;;;;;;7.05;6.38;;;;;;;22.12;38.55;102004.50;5069300;28;20392;-89
2022/06/02 12:39:18;;;;;;;8.63;7.72;;;;;;;21.92;39.49;102002.34;5028988;28;20066;-87
2022/06/02 12:41:46;;;;;;;10.95;7.57;;;;;;;21.64;41.79;101993.25;5068665;28;20035;-84
2022/06/02 12:44:39;;;;;;;8.23;7.00;;;;;;;21.77;40.10;102000.28;5084183;28;20384;-84
2022/06/02 12:47:22;;;;;;;8.93;6.85;;;;;;;21.54;39.09;102002.25;5068303;28;20529;-87